Pagina principale
METAR-TAF:

METAR-TAF

Aeroporti :

Tabarka, Tunisia

latitudine: 36-57N, longitudine: 008-45E, altezza: 20 m

Osservazione

Il bollettino è stato emesso 31 minuti fa, alle 19:00 UTC
Vento 8 kt da ovest
Temperature 23°C
Umidità 78%
Pressione 1016 hPa
Visibilità 10 km o più
nessuna nube inferiore a 1500 m e nessun cumulonembo

METAR: DTKA 231900Z 28008KT CAVOK 23/19 Q1016 NOSIG

Ora: 20:31 (19:31 UTC)

Previsione

Il bollettino è stato emesso 1 ora e 31 minuti fa, alle 18:00 UTC
Previsione valida dal 23 alle 19 UTC al 24 alle 04 UTC
Vento 12 kt da ovest
Visibilità 10 km o più
nessuna nube inferiore a 1500 m e nessun cumulonembo

TAF: DTKA 231800Z 2319/2404 27012KT CAVOK

Osservazioni e previsioni meteorologiche di più di 4000 aeroporti (messaggi METAR e TAF).

Le stazioni disponibili sono rappresentate dai dischi gialli e rossi sulla carta.

Puntare il mouse per vedere il nome della stazione.

Clicca sopra per visualizzare le osservazioni e previsioni meteorologiche.

Per cambiare la mappa : fare clic sui pulsanti verdi con una croce nera per ingrandire, il pulsante verde con un trattino per diminuire, o sulla freccia verde per le mappe adiacenti.


METAR-TAF: